AirNav   ProFlight Series 2 Aviation Headset
 
 1047 users online  

6FD5 Blanket Bay Airport
Yeehaw Junction, Florida, USA

GOING TO YEEHAW JUNCTION?


FAA INFORMATION EFFECTIVE 18 JUNE 2020

Location

FAA Identifier: 6FD5
Lat/Long: 27-46-43.1000N 081-05-59.2370W
27-46.718333N 081-05.987283W
27.7786389,-81.0997881
(estimated)
Elevation: 65 ft. / 20 m (estimated)
Variation: 03W (1990)
From city: 14 miles NW of YEEHAW JUNCTION, FL
Time zone: UTC -4 (UTC -5 during Standard Time)
Zip code: 34739

Airport Operations

Airport use: Private use. Permission required prior to landing
Activation date: 06/1992
Control tower: no
ARTCC: MIAMI CENTER
FSS: SAINT PETERSBURG FLIGHT SERVICE STATION
Attendance: UNATNDD
Wind indicator: yes
Segmented circle: no

Nearby radio navigation aids

VOR radial/distance  VOR name  Freq  Var
MLBr238/31.5MELBOURNE VOR/DME110.0007W
TRVr288/33.0TREASURE VORTAC117.3007W

Airport Services

Runway Information

Runway 10/28

Dimensions: 3000 x 80 ft. / 914 x 24 m
Surface: turf, in fair condition
RUNWAY 10  RUNWAY 28
Traffic pattern: leftleft
Displaced threshold: 100 ft.100 ft.

Airport Ownership and Management from official FAA records

Ownership: Privately-owned
Owner: BEXLEY RANCH LAND TRUST
PO BOX 10
SUMTERVILLE, FL 33585-2909
Phone 352-569-1264
Manager: BRIAN BEXLEY
PO BOX 10
SUMTERVILLE, FL 33585-2909
Phone 352-569-1264

Additional Remarks

FOR CD CTC MIAMI ARTCC AT 305-716-1731.

Instrument Procedures

There are no published instrument procedures at 6FD5.

Some nearby airports with instrument procedures:

KSEF - Sebring Regional Airport (23 nm SW)
KAVO - Avon Park Executive Airport (25 nm SW)
X07 - Lake Wales Municipal Airport (28 nm W)
KMLB - Melbourne International Airport (31 nm NE)
X26 - Sebastian Municipal Airport (32 nm E)
 
Loc | Ops | Rwys | IFR | FBO | Links
Com | Nav | Svcs | Stats | Notes

Reliance Aviation
AirBoss

 
Area around 6FD5 (Blanket Bay Airport)
 
Road maps at: MapQuest Bing Google
 
Aerial photo
No photo
 
Sectional chart

 
Airport distance calculator
Flying to Blanket Bay Airport? Find the distance to fly.

From to 6FD5

Sunrise and sunset
Times for 12-Jul-2020
 Local
(UTC-4)
 Zulu
(UTC)
Morning civil twilight06:1210:12
Sunrise06:3810:38
Sunset20:2200:22
Evening civil twilight20:4800:48

Current date and time
Zulu (UTC)  12-Jul-2020 17:21:54
Local (UTC-4)  12-Jul-2020 13:21:54
 
METAR
KAGR 
15nm SW 
121658Z AUTO 23007KT 10SM FEW220 33/25 A2990 RMK AO2 LTG DSNT SE-S SLP126 T03300245 $
KSEF 
23nm SW 
121655Z AUTO 14007KT 10SM BKN037 SCT047 SCT055 32/26 A2992 RMK AO2 LTG DSNT SE AND SW T03180259
KX07 
28nm W 
121655Z AUTO 00000KT 10SM FEW038 33/25 A2992 RMK A01
TAF
KMLB 
31nm NE 
121131Z 1212/1312 22007KT P6SM SCT250 FM121400 24008KT P6SM SCT035 BKN250 FM121800 24008KT P6SM VCTS SCT035CB BKN050 BKN250 FM122200 17009KT P6SM VCSH SCT040 BKN250 FM130100 19005KT P6SM FEW040 SCT250
KISM 
35nm NW 
121358Z 1214/1312 24006KT P6SM SCT010 SCT040 TEMPO 1214/1215 BKN010 FM121700 26008KT P6SM VCTS SCT035CB SCT070 FM122200 22007KT P6SM VCSH SCT040 BKN100 FM130100 VRB04KT P6SM FEW040 SCT120 BKN250
KVRB 
37nm E 
121427Z 1214/1312 21008KT P6SM VCTS SCT015CB BKN035 TEMPO 1214/1216 5SM TSRA BKN025CB FM121800 17013KT P6SM VCTS SCT030CB BKN060 BKN250 TEMPO 1218/1221 3SM TSRA BKN030CB FM122200 18012KT P6SM VCSH SCT040 BKN250 FM130200 21006KT P6SM FEW040 SCT250
KCOF 
38nm NE 
121000Z 1210/1316 25007KT 9999 SCT050 QNH2988INS BECMG 1217/1218 21007KT 9000 -SHRA VCTS BKN030CB QNH2984INS TEMPO 1218/1223 16015G25KT 4800 -TSRA BKN025CB BECMG 1301/1302 22005KT 9999 NSW SCT030 QNH2985INS TX32/1219Z TN24/1211Z
NOTAMs
Click for the latest NOTAMs
NOTAMs are issued by the DoD/FAA and will open in a separate window not controlled by AirNav.

 

 
 

Would you like to see your business listed on this page?

 If your business provides an interesting product or service to pilots, flight crews, aircraft, or users of the Blanket Bay Airport, you should consider listing it here.  To start the listing process, click on the button below
 
Add a business
 

Other Pages about Blanket Bay Airport

Update a link
 
Copyright © AirNav, LLC. All rights reserved. Privacy Policy  Contact